sensor_id;sensor_type;location;lat;lon;timestamp;P1;durP1;ratioP1;P2;durP2;ratioP2
74650;SDS011;63169;46.042;14.592;2023-05-16T00:01:09;2.72;;;1.75;;
74650;SDS011;63169;46.042;14.592;2023-05-16T00:03:34;1.95;;;0.77;;
74650;SDS011;63169;46.042;14.592;2023-05-16T00:06:01;1.15;;;0.70;;
74650;SDS011;63169;46.042;14.592;2023-05-16T00:08:27;1.45;;;0.77;;
74650;SDS011;63169;46.042;14.592;2023-05-16T00:10:53;1.05;;;0.77;;
74650;SDS011;63169;46.042;14.592;2023-05-16T00:13:18;1.85;;;0.43;;
74650;SDS011;63169;46.042;14.592;2023-05-16T00:15:49;2.10;;;1.70;;
74650;SDS011;63169;46.042;14.592;2023-05-16T00:18:17;1.45;;;0.70;;
74650;SDS011;63169;46.042;14.592;2023-05-16T00:20:43;1.45;;;0.55;;
74650;SDS011;63169;46.042;14.592;2023-05-16T00:23:09;1.67;;;0.70;;
74650;SDS011;63169;46.042;14.592;2023-05-16T00:25:37;2.20;;;0.55;;
74650;SDS011;63169;46.042;14.592;2023-05-16T00:28:02;1.50;;;0.73;;
74650;SDS011;63169;46.042;14.592;2023-05-16T00:30:27;1.27;;;0.85;;
74650;SDS011;63169;46.042;14.592;2023-05-16T00:32:53;1.70;;;0.73;;
74650;SDS011;63169;46.042;14.592;2023-05-16T00:35:19;1.52;;;0.90;;
74650;SDS011;63169;46.042;14.592;2023-05-16T00:37:44;0.98;;;0.45;;
74650;SDS011;63169;46.042;14.592;2023-05-16T00:40:10;3.33;;;0.75;;
74650;SDS011;63169;46.042;14.592;2023-05-16T00:42:36;1.50;;;0.52;;
74650;SDS011;63169;46.042;14.592;2023-05-16T00:45:02;1.15;;;0.75;;
74650;SDS011;63169;46.042;14.592;2023-05-16T00:47:28;1.15;;;0.57;;
74650;SDS011;63169;46.042;14.592;2023-05-16T00:49:54;2.20;;;0.98;;
74650;SDS011;63169;46.042;14.592;2023-05-16T00:52:19;2.08;;;1.02;;
74650;SDS011;63169;46.042;14.592;2023-05-16T00:54:45;1.58;;;1.40;;
74650;SDS011;63169;46.042;14.592;2023-05-16T00:57:10;1.63;;;0.65;;
74650;SDS011;63169;46.042;14.592;2023-05-16T00:59:36;1.08;;;0.43;;
74650;SDS011;63169;46.042;14.592;2023-05-16T01:02:01;1.38;;;0.55;;
74650;SDS011;63169;46.042;14.592;2023-05-16T01:04:27;1.17;;;0.20;;
74650;SDS011;63169;46.042;14.592;2023-05-16T01:06:53;1.35;;;0.50;;
74650;SDS011;63169;46.042;14.592;2023-05-16T01:09:20;1.17;;;0.68;;
74650;SDS011;63169;46.042;14.592;2023-05-16T01:20:26;3.08;;;0.65;;
74650;SDS011;63169;46.042;14.592;2023-05-16T01:28:12;1.92;;;1.58;;
74650;SDS011;63169;46.042;14.592;2023-05-16T01:30:40;1.20;;;1.05;;
74650;SDS011;63169;46.042;14.592;2023-05-16T01:33:06;1.75;;;0.93;;
74650;SDS011;63169;46.042;14.592;2023-05-16T01:35:32;1.70;;;0.75;;
74650;SDS011;63169;46.042;14.592;2023-05-16T01:37:58;1.17;;;0.57;;
74650;SDS011;63169;46.042;14.592;2023-05-16T01:40:50;1.60;;;0.68;;
74650;SDS011;63169;46.042;14.592;2023-05-16T01:43:24;3.53;;;1.88;;
74650;SDS011;63169;46.042;14.592;2023-05-16T01:45:57;1.75;;;0.50;;
74650;SDS011;63169;46.042;14.592;2023-05-16T01:48:27;2.65;;;2.45;;
74650;SDS011;63169;46.042;14.592;2023-05-16T01:50:56;2.15;;;1.17;;
74650;SDS011;63169;46.042;14.592;2023-05-16T01:53:27;1.52;;;0.73;;
74650;SDS011;63169;46.042;14.592;2023-05-16T01:55:59;1.58;;;0.93;;
74650;SDS011;63169;46.042;14.592;2023-05-16T01:58:27;1.15;;;0.68;;
74650;SDS011;63169;46.042;14.592;2023-05-16T02:00:53;1.60;;;0.38;;
74650;SDS011;63169;46.042;14.592;2023-05-16T02:03:18;1.10;;;0.17;;
74650;SDS011;63169;46.042;14.592;2023-05-16T02:05:44;1.35;;;0.80;;
74650;SDS011;63169;46.042;14.592;2023-05-16T02:08:09;1.38;;;0.43;;
74650;SDS011;63169;46.042;14.592;2023-05-16T02:10:35;1.85;;;0.98;;
74650;SDS011;63169;46.042;14.592;2023-05-16T02:13:00;1.85;;;0.75;;
74650;SDS011;63169;46.042;14.592;2023-05-16T02:15:26;1.88;;;1.77;;
74650;SDS011;63169;46.042;14.592;2023-05-16T02:17:51;1.58;;;0.77;;
74650;SDS011;63169;46.042;14.592;2023-05-16T02:20:16;1.42;;;0.28;;
74650;SDS011;63169;46.042;14.592;2023-05-16T02:22:42;1.27;;;0.85;;
74650;SDS011;63169;46.042;14.592;2023-05-16T02:25:08;1.15;;;0.28;;
74650;SDS011;63169;46.042;14.592;2023-05-16T02:27:34;0.90;;;0.60;;
74650;SDS011;63169;46.042;14.592;2023-05-16T02:30:00;2.08;;;1.10;;
74650;SDS011;63169;46.042;14.592;2023-05-16T02:32:25;2.88;;;0.77;;
74650;SDS011;63169;46.042;14.592;2023-05-16T02:34:51;1.13;;;0.70;;
74650;SDS011;63169;46.042;14.592;2023-05-16T02:37:16;1.30;;;0.75;;
74650;SDS011;63169;46.042;14.592;2023-05-16T02:39:42;1.27;;;1.17;;
74650;SDS011;63169;46.042;14.592;2023-05-16T02:42:07;2.00;;;1.80;;
74650;SDS011;63169;46.042;14.592;2023-05-16T02:44:33;1.33;;;0.63;;
74650;SDS011;63169;46.042;14.592;2023-05-16T02:46:58;1.38;;;0.28;;
74650;SDS011;63169;46.042;14.592;2023-05-16T02:49:23;1.80;;;0.45;;
74650;SDS011;63169;46.042;14.592;2023-05-16T02:51:49;1.10;;;0.28;;
74650;SDS011;63169;46.042;14.592;2023-05-16T02:54:14;2.03;;;1.02;;
74650;SDS011;63169;46.042;14.592;2023-05-16T02:56:39;1.60;;;0.70;;
74650;SDS011;63169;46.042;14.592;2023-05-16T02:59:05;1.50;;;1.00;;
74650;SDS011;63169;46.042;14.592;2023-05-16T03:01:31;2.42;;;0.98;;
74650;SDS011;63169;46.042;14.592;2023-05-16T03:03:56;1.13;;;0.30;;
74650;SDS011;63169;46.042;14.592;2023-05-16T03:06:21;3.35;;;0.52;;
74650;SDS011;63169;46.042;14.592;2023-05-16T03:08:47;2.03;;;1.02;;
74650;SDS011;63169;46.042;14.592;2023-05-16T03:11:13;1.85;;;0.35;;
74650;SDS011;63169;46.042;14.592;2023-05-16T03:13:39;1.50;;;0.93;;
74650;SDS011;63169;46.042;14.592;2023-05-16T03:16:04;1.77;;;0.52;;
74650;SDS011;63169;46.042;14.592;2023-05-16T03:18:30;1.52;;;0.63;;
74650;SDS011;63169;46.042;14.592;2023-05-16T03:20:55;2.40;;;2.15;;
74650;SDS011;63169;46.042;14.592;2023-05-16T03:23:21;2.30;;;0.55;;
74650;SDS011;63169;46.042;14.592;2023-05-16T03:25:47;1.52;;;0.38;;
74650;SDS011;63169;46.042;14.592;2023-05-16T03:28:12;0.90;;;0.57;;
74650;SDS011;63169;46.042;14.592;2023-05-16T03:30:38;0.80;;;0.63;;
74650;SDS011;63169;46.042;14.592;2023-05-16T03:33:04;0.98;;;0.52;;
74650;SDS011;63169;46.042;14.592;2023-05-16T03:35:32;1.70;;;1.15;;
74650;SDS011;63169;46.042;14.592;2023-05-16T03:38:01;0.80;;;0.57;;
74650;SDS011;63169;46.042;14.592;2023-05-16T03:40:27;0.95;;;0.28;;
74650;SDS011;63169;46.042;14.592;2023-05-16T03:42:52;0.75;;;0.28;;
74650;SDS011;63169;46.042;14.592;2023-05-16T03:45:18;1.30;;;0.95;;
74650;SDS011;63169;46.042;14.592;2023-05-16T03:47:43;2.28;;;1.52;;
74650;SDS011;63169;46.042;14.592;2023-05-16T03:50:09;1.30;;;0.47;;
74650;SDS011;63169;46.042;14.592;2023-05-16T03:52:35;1.58;;;0.73;;
74650;SDS011;63169;46.042;14.592;2023-05-16T03:55:00;1.73;;;0.90;;
74650;SDS011;63169;46.042;14.592;2023-05-16T03:57:29;1.08;;;0.28;;
74650;SDS011;63169;46.042;14.592;2023-05-16T03:59:55;1.65;;;0.93;;
74650;SDS011;63169;46.042;14.592;2023-05-16T04:02:21;1.27;;;0.25;;
74650;SDS011;63169;46.042;14.592;2023-05-16T04:04:46;2.97;;;2.42;;
74650;SDS011;63169;46.042;14.592;2023-05-16T04:07:12;1.85;;;0.68;;
74650;SDS011;63169;46.042;14.592;2023-05-16T04:09:37;1.23;;;0.35;;
74650;SDS011;63169;46.042;14.592;2023-05-16T04:12:03;1.08;;;0.47;;
74650;SDS011;63169;46.042;14.592;2023-05-16T04:14:28;1.23;;;0.52;;
74650;SDS011;63169;46.042;14.592;2023-05-16T04:16:54;1.70;;;0.65;;
74650;SDS011;63169;46.042;14.592;2023-05-16T04:19:19;2.13;;;0.73;;
74650;SDS011;63169;46.042;14.592;2023-05-16T04:21:44;2.90;;;1.23;;
74650;SDS011;63169;46.042;14.592;2023-05-16T04:24:10;2.95;;;1.45;;
74650;SDS011;63169;46.042;14.592;2023-05-16T04:26:35;4.35;;;1.77;;
74650;SDS011;63169;46.042;14.592;2023-05-16T04:29:04;3.05;;;1.33;;
74650;SDS011;63169;46.042;14.592;2023-05-16T04:31:30;2.40;;;0.75;;
74650;SDS011;63169;46.042;14.592;2023-05-16T04:33:55;2.35;;;0.68;;
74650;SDS011;63169;46.042;14.592;2023-05-16T04:38:47;3.08;;;0.88;;
74650;SDS011;63169;46.042;14.592;2023-05-16T04:41:12;3.55;;;0.88;;
74650;SDS011;63169;46.042;14.592;2023-05-16T04:43:38;3.50;;;1.45;;
74650;SDS011;63169;46.042;14.592;2023-05-16T04:46:04;3.50;;;2.88;;
74650;SDS011;63169;46.042;14.592;2023-05-16T04:48:31;4.47;;;2.25;;
74650;SDS011;63169;46.042;14.592;2023-05-16T04:50:57;3.67;;;1.88;;
74650;SDS011;63169;46.042;14.592;2023-05-16T04:53:22;2.88;;;2.58;;
74650;SDS011;63169;46.042;14.592;2023-05-16T04:55:48;2.00;;;1.13;;
74650;SDS011;63169;46.042;14.592;2023-05-16T04:58:13;1.80;;;1.17;;
74650;SDS011;63169;46.042;14.592;2023-05-16T05:00:38;1.63;;;0.63;;
74650;SDS011;63169;46.042;14.592;2023-05-16T05:03:04;1.42;;;0.60;;
74650;SDS011;63169;46.042;14.592;2023-05-16T05:05:29;3.08;;;0.70;;
74650;SDS011;63169;46.042;14.592;2023-05-16T05:07:56;1.33;;;0.93;;
74650;SDS011;63169;46.042;14.592;2023-05-16T05:10:22;1.67;;;0.73;;
74650;SDS011;63169;46.042;14.592;2023-05-16T05:12:47;1.70;;;1.13;;
74650;SDS011;63169;46.042;14.592;2023-05-16T05:15:13;1.92;;;1.02;;
74650;SDS011;63169;46.042;14.592;2023-05-16T05:17:38;1.85;;;0.40;;
74650;SDS011;63169;46.042;14.592;2023-05-16T05:20:04;1.77;;;0.75;;
74650;SDS011;63169;46.042;14.592;2023-05-16T05:22:34;2.65;;;0.85;;
74650;SDS011;63169;46.042;14.592;2023-05-16T05:24:59;3.30;;;1.80;;
74650;SDS011;63169;46.042;14.592;2023-05-16T05:27:25;3.35;;;1.80;;
74650;SDS011;63169;46.042;14.592;2023-05-16T05:29:51;3.30;;;2.63;;
74650;SDS011;63169;46.042;14.592;2023-05-16T05:32:17;4.30;;;2.58;;
74650;SDS011;63169;46.042;14.592;2023-05-16T05:34:42;3.80;;;3.50;;
74650;SDS011;63169;46.042;14.592;2023-05-16T05:37:07;3.33;;;1.83;;
74650;SDS011;63169;46.042;14.592;2023-05-16T05:39:33;2.50;;;1.67;;
74650;SDS011;63169;46.042;14.592;2023-05-16T05:41:58;3.33;;;1.73;;
74650;SDS011;63169;46.042;14.592;2023-05-16T05:44:23;2.38;;;0.82;;
74650;SDS011;63169;46.042;14.592;2023-05-16T05:46:49;2.25;;;0.93;;
74650;SDS011;63169;46.042;14.592;2023-05-16T05:49:15;3.15;;;1.55;;
74650;SDS011;63169;46.042;14.592;2023-05-16T05:51:40;4.38;;;2.53;;
74650;SDS011;63169;46.042;14.592;2023-05-16T05:54:06;8.73;;;5.95;;
74650;SDS011;63169;46.042;14.592;2023-05-16T05:56:31;5.53;;;1.92;;
74650;SDS011;63169;46.042;14.592;2023-05-16T05:58:56;3.20;;;1.50;;
74650;SDS011;63169;46.042;14.592;2023-05-16T06:01:22;3.17;;;1.58;;
74650;SDS011;63169;46.042;14.592;2023-05-16T06:03:48;3.22;;;2.08;;
74650;SDS011;63169;46.042;14.592;2023-05-16T06:06:13;3.22;;;2.58;;
74650;SDS011;63169;46.042;14.592;2023-05-16T06:08:39;4.03;;;3.63;;
74650;SDS011;63169;46.042;14.592;2023-05-16T06:11:05;3.10;;;2.03;;
74650;SDS011;63169;46.042;14.592;2023-05-16T06:13:31;3.45;;;1.95;;
74650;SDS011;63169;46.042;14.592;2023-05-16T06:15:56;3.22;;;1.63;;
74650;SDS011;63169;46.042;14.592;2023-05-16T06:18:22;5.15;;;1.70;;
74650;SDS011;63169;46.042;14.592;2023-05-16T06:20:51;3.78;;;1.73;;
74650;SDS011;63169;46.042;14.592;2023-05-16T06:23:16;5.47;;;3.90;;
74650;SDS011;63169;46.042;14.592;2023-05-16T06:25:42;3.08;;;1.25;;
74650;SDS011;63169;46.042;14.592;2023-05-16T06:28:07;4.07;;;1.95;;
74650;SDS011;63169;46.042;14.592;2023-05-16T06:30:32;3.63;;;2.20;;
74650;SDS011;63169;46.042;14.592;2023-05-16T06:32:58;3.42;;;1.42;;
74650;SDS011;63169;46.042;14.592;2023-05-16T06:35:24;4.10;;;1.73;;
74650;SDS011;63169;46.042;14.592;2023-05-16T06:37:49;2.55;;;1.35;;
74650;SDS011;63169;46.042;14.592;2023-05-16T06:40:15;3.13;;;1.27;;
74650;SDS011;63169;46.042;14.592;2023-05-16T06:42:40;2.88;;;1.33;;
74650;SDS011;63169;46.042;14.592;2023-05-16T06:45:06;3.53;;;1.65;;
74650;SDS011;63169;46.042;14.592;2023-05-16T06:47:32;3.67;;;1.30;;
74650;SDS011;63169;46.042;14.592;2023-05-16T06:49:57;3.03;;;1.73;;
74650;SDS011;63169;46.042;14.592;2023-05-16T06:52:24;4.00;;;1.88;;
74650;SDS011;63169;46.042;14.592;2023-05-16T06:54:49;2.95;;;1.92;;
74650;SDS011;63169;46.042;14.592;2023-05-16T06:57:14;2.70;;;1.10;;
74650;SDS011;63169;46.042;14.592;2023-05-16T06:59:40;3.78;;;1.58;;
74650;SDS011;63169;46.042;14.592;2023-05-16T07:02:06;2.67;;;1.48;;
74650;SDS011;63169;46.042;14.592;2023-05-16T07:04:31;2.47;;;1.33;;
74650;SDS011;63169;46.042;14.592;2023-05-16T07:06:58;2.65;;;1.00;;
74650;SDS011;63169;46.042;14.592;2023-05-16T07:09:23;2.47;;;1.10;;
74650;SDS011;63169;46.042;14.592;2023-05-16T07:11:49;2.85;;;2.22;;
74650;SDS011;63169;46.042;14.592;2023-05-16T07:14:14;2.30;;;0.98;;
74650;SDS011;63169;46.042;14.592;2023-05-16T07:16:40;3.15;;;1.00;;
74650;SDS011;63169;46.042;14.592;2023-05-16T07:19:05;2.17;;;1.02;;
74650;SDS011;63169;46.042;14.592;2023-05-16T07:21:30;5.82;;;5.40;;
74650;SDS011;63169;46.042;14.592;2023-05-16T07:23:56;2.97;;;2.00;;
74650;SDS011;63169;46.042;14.592;2023-05-16T07:26:21;2.35;;;0.88;;
74650;SDS011;63169;46.042;14.592;2023-05-16T07:28:51;2.03;;;0.63;;
74650;SDS011;63169;46.042;14.592;2023-05-16T07:31:16;2.63;;;1.38;;
74650;SDS011;63169;46.042;14.592;2023-05-16T07:33:43;4.00;;;3.03;;
74650;SDS011;63169;46.042;14.592;2023-05-16T07:38:34;2.85;;;1.17;;
74650;SDS011;63169;46.042;14.592;2023-05-16T07:40:59;2.33;;;1.35;;
74650;SDS011;63169;46.042;14.592;2023-05-16T07:43:25;2.20;;;0.80;;
74650;SDS011;63169;46.042;14.592;2023-05-16T07:45:50;3.92;;;1.05;;
74650;SDS011;63169;46.042;14.592;2023-05-16T07:48:16;1.55;;;0.82;;
74650;SDS011;63169;46.042;14.592;2023-05-16T07:50:41;2.13;;;1.08;;
74650;SDS011;63169;46.042;14.592;2023-05-16T07:53:07;1.92;;;1.45;;
74650;SDS011;63169;46.042;14.592;2023-05-16T07:55:32;2.05;;;0.88;;
74650;SDS011;63169;46.042;14.592;2023-05-16T07:58:01;3.95;;;0.95;;
74650;SDS011;63169;46.042;14.592;2023-05-16T08:00:27;3.00;;;0.70;;
74650;SDS011;63169;46.042;14.592;2023-05-16T08:02:53;1.80;;;0.88;;
74650;SDS011;63169;46.042;14.592;2023-05-16T08:05:18;2.25;;;0.98;;
74650;SDS011;63169;46.042;14.592;2023-05-16T08:07:43;2.05;;;0.73;;
74650;SDS011;63169;46.042;14.592;2023-05-16T08:10:09;2.05;;;0.95;;
74650;SDS011;63169;46.042;14.592;2023-05-16T08:12:34;1.90;;;0.68;;
74650;SDS011;63169;46.042;14.592;2023-05-16T08:15:00;2.85;;;1.42;;
74650;SDS011;63169;46.042;14.592;2023-05-16T08:17:26;2.25;;;1.95;;
74650;SDS011;63169;46.042;14.592;2023-05-16T08:19:52;2.28;;;1.02;;
74650;SDS011;63169;46.042;14.592;2023-05-16T08:22:18;3.35;;;1.55;;
74650;SDS011;63169;46.042;14.592;2023-05-16T08:24:43;1.90;;;0.63;;
74650;SDS011;63169;46.042;14.592;2023-05-16T08:27:08;2.67;;;0.90;;
74650;SDS011;63169;46.042;14.592;2023-05-16T08:29:35;3.92;;;1.10;;
74650;SDS011;63169;46.042;14.592;2023-05-16T08:32:00;1.33;;;0.28;;
74650;SDS011;63169;46.042;14.592;2023-05-16T08:34:25;1.52;;;0.65;;
74650;SDS011;63169;46.042;14.592;2023-05-16T08:36:51;2.53;;;0.98;;
74650;SDS011;63169;46.042;14.592;2023-05-16T08:39:16;1.75;;;0.75;;
74650;SDS011;63169;46.042;14.592;2023-05-16T08:41:42;2.47;;;0.50;;
74650;SDS011;63169;46.042;14.592;2023-05-16T08:44:07;1.70;;;0.80;;
74650;SDS011;63169;46.042;14.592;2023-05-16T08:46:34;1.80;;;0.80;;
74650;SDS011;63169;46.042;14.592;2023-05-16T08:49:00;1.33;;;0.63;;
74650;SDS011;63169;46.042;14.592;2023-05-16T08:51:30;1.80;;;1.20;;
74650;SDS011;63169;46.042;14.592;2023-05-16T08:54:01;2.47;;;0.50;;
74650;SDS011;63169;46.042;14.592;2023-05-16T08:56:28;2.25;;;0.60;;
74650;SDS011;63169;46.042;14.592;2023-05-16T08:58:54;2.00;;;1.08;;
74650;SDS011;63169;46.042;14.592;2023-05-16T09:01:21;1.75;;;0.98;;
74650;SDS011;63169;46.042;14.592;2023-05-16T09:03:48;2.00;;;0.90;;
74650;SDS011;63169;46.042;14.592;2023-05-16T09:06:14;4.07;;;1.23;;
74650;SDS011;63169;46.042;14.592;2023-05-16T09:08:40;1.90;;;0.47;;
74650;SDS011;63169;46.042;14.592;2023-05-16T09:11:05;1.95;;;0.68;;
74650;SDS011;63169;46.042;14.592;2023-05-16T09:13:32;2.22;;;1.10;;
74650;SDS011;63169;46.042;14.592;2023-05-16T09:16:07;2.38;;;0.63;;
74650;SDS011;63169;46.042;14.592;2023-05-16T09:18:33;1.80;;;0.52;;
74650;SDS011;63169;46.042;14.592;2023-05-16T09:20:59;1.55;;;0.45;;
74650;SDS011;63169;46.042;14.592;2023-05-16T09:23:25;1.42;;;0.45;;
74650;SDS011;63169;46.042;14.592;2023-05-16T09:25:51;2.53;;;0.70;;
74650;SDS011;63169;46.042;14.592;2023-05-16T09:28:17;1.70;;;1.33;;
74650;SDS011;63169;46.042;14.592;2023-05-16T09:30:44;3.38;;;1.05;;
74650;SDS011;63169;46.042;14.592;2023-05-16T09:33:10;1.35;;;0.43;;
74650;SDS011;63169;46.042;14.592;2023-05-16T09:35:36;1.38;;;0.43;;
74650;SDS011;63169;46.042;14.592;2023-05-16T09:38:01;1.73;;;0.93;;
74650;SDS011;63169;46.042;14.592;2023-05-16T09:40:27;1.85;;;1.40;;
74650;SDS011;63169;46.042;14.592;2023-05-16T09:43:05;2.20;;;2.10;;
74650;SDS011;63169;46.042;14.592;2023-05-16T09:45:32;2.13;;;1.92;;
74650;SDS011;63169;46.042;14.592;2023-05-16T09:50:28;2.53;;;0.47;;
74650;SDS011;63169;46.042;14.592;2023-05-16T09:53:00;1.23;;;0.47;;
74650;SDS011;63169;46.042;14.592;2023-05-16T09:55:25;1.75;;;0.82;;
74650;SDS011;63169;46.042;14.592;2023-05-16T09:57:51;2.28;;;1.63;;
74650;SDS011;63169;46.042;14.592;2023-05-16T10:00:16;2.47;;;1.00;;
74650;SDS011;63169;46.042;14.592;2023-05-16T10:02:42;3.75;;;3.35;;
74650;SDS011;63169;46.042;14.592;2023-05-16T10:05:08;3.20;;;2.90;;
74650;SDS011;63169;46.042;14.592;2023-05-16T10:07:33;2.28;;;0.38;;
74650;SDS011;63169;46.042;14.592;2023-05-16T10:10:08;2.35;;;1.67;;
74650;SDS011;63169;46.042;14.592;2023-05-16T10:12:34;3.80;;;2.40;;
74650;SDS011;63169;46.042;14.592;2023-05-16T10:15:01;4.45;;;3.00;;
74650;SDS011;63169;46.042;14.592;2023-05-16T10:17:29;2.15;;;1.23;;
74650;SDS011;63169;46.042;14.592;2023-05-16T10:19:56;2.50;;;1.02;;
74650;SDS011;63169;46.042;14.592;2023-05-16T10:22:22;2.58;;;0.65;;
74650;SDS011;63169;46.042;14.592;2023-05-16T10:24:57;2.35;;;1.08;;
74650;SDS011;63169;46.042;14.592;2023-05-16T10:27:28;2.78;;;1.75;;
74650;SDS011;63169;46.042;14.592;2023-05-16T10:29:54;2.92;;;0.95;;
74650;SDS011;63169;46.042;14.592;2023-05-16T10:32:22;3.35;;;1.33;;
74650;SDS011;63169;46.042;14.592;2023-05-16T10:34:48;2.97;;;1.60;;
74650;SDS011;63169;46.042;14.592;2023-05-16T10:37:14;3.13;;;1.42;;
74650;SDS011;63169;46.042;14.592;2023-05-16T10:39:39;5.50;;;3.47;;
74650;SDS011;63169;46.042;14.592;2023-05-16T10:42:05;3.40;;;1.05;;
74650;SDS011;63169;46.042;14.592;2023-05-16T10:44:31;4.00;;;1.65;;
74650;SDS011;63169;46.042;14.592;2023-05-16T10:46:58;5.43;;;2.85;;
74650;SDS011;63169;46.042;14.592;2023-05-16T10:49:25;4.60;;;2.95;;
74650;SDS011;63169;46.042;14.592;2023-05-16T10:52:01;2.45;;;1.52;;
74650;SDS011;63169;46.042;14.592;2023-05-16T10:54:37;6.45;;;1.38;;
74650;SDS011;63169;46.042;14.592;2023-05-16T10:57:17;2.38;;;0.65;;
74650;SDS011;63169;46.042;14.592;2023-05-16T10:59:49;3.15;;;1.35;;
74650;SDS011;63169;46.042;14.592;2023-05-16T11:04:48;2.88;;;1.38;;
74650;SDS011;63169;46.042;14.592;2023-05-16T11:07:16;5.20;;;2.65;;
74650;SDS011;63169;46.042;14.592;2023-05-16T11:09:42;4.30;;;1.48;;
74650;SDS011;63169;46.042;14.592;2023-05-16T11:12:08;4.32;;;1.80;;
74650;SDS011;63169;46.042;14.592;2023-05-16T11:14:40;3.08;;;1.60;;
74650;SDS011;63169;46.042;14.592;2023-05-16T11:17:18;3.63;;;1.23;;
74650;SDS011;63169;46.042;14.592;2023-05-16T11:19:53;3.20;;;1.17;;
74650;SDS011;63169;46.042;14.592;2023-05-16T11:24:53;3.70;;;2.15;;
74650;SDS011;63169;46.042;14.592;2023-05-16T11:29:53;5.25;;;1.75;;
74650;SDS011;63169;46.042;14.592;2023-05-16T11:32:21;4.50;;;3.75;;
74650;SDS011;63169;46.042;14.592;2023-05-16T11:34:47;4.15;;;1.52;;
74650;SDS011;63169;46.042;14.592;2023-05-16T11:37:13;4.00;;;2.15;;
74650;SDS011;63169;46.042;14.592;2023-05-16T11:39:39;5.63;;;2.03;;
74650;SDS011;63169;46.042;14.592;2023-05-16T11:42:05;4.18;;;2.25;;
74650;SDS011;63169;46.042;14.592;2023-05-16T11:44:30;4.85;;;4.38;;
74650;SDS011;63169;46.042;14.592;2023-05-16T11:46:55;3.53;;;1.77;;
74650;SDS011;63169;46.042;14.592;2023-05-16T11:49:21;3.90;;;1.55;;
74650;SDS011;63169;46.042;14.592;2023-05-16T11:51:46;3.10;;;1.17;;
74650;SDS011;63169;46.042;14.592;2023-05-16T11:54:13;3.60;;;1.67;;
74650;SDS011;63169;46.042;14.592;2023-05-16T11:56:39;3.78;;;2.17;;
74650;SDS011;63169;46.042;14.592;2023-05-16T11:59:05;4.38;;;3.97;;
74650;SDS011;63169;46.042;14.592;2023-05-16T12:01:34;2.92;;;1.33;;
74650;SDS011;63169;46.042;14.592;2023-05-16T12:04:13;3.50;;;1.67;;
74650;SDS011;63169;46.042;14.592;2023-05-16T12:06:39;3.22;;;1.85;;
74650;SDS011;63169;46.042;14.592;2023-05-16T12:09:10;2.90;;;1.13;;
74650;SDS011;63169;46.042;14.592;2023-05-16T12:11:37;3.13;;;1.95;;
74650;SDS011;63169;46.042;14.592;2023-05-16T12:14:04;3.80;;;1.77;;
74650;SDS011;63169;46.042;14.592;2023-05-16T12:16:30;3.88;;;1.55;;
74650;SDS011;63169;46.042;14.592;2023-05-16T12:21:22;3.13;;;1.90;;
74650;SDS011;63169;46.042;14.592;2023-05-16T12:23:47;2.47;;;0.85;;
74650;SDS011;63169;46.042;14.592;2023-05-16T12:26:12;2.75;;;0.85;;
74650;SDS011;63169;46.042;14.592;2023-05-16T12:28:38;2.58;;;1.13;;
74650;SDS011;63169;46.042;14.592;2023-05-16T12:31:10;3.88;;;1.42;;
74650;SDS011;63169;46.042;14.592;2023-05-16T12:33:36;3.08;;;2.22;;
74650;SDS011;63169;46.042;14.592;2023-05-16T12:36:02;4.38;;;1.60;;
74650;SDS011;63169;46.042;14.592;2023-05-16T12:38:28;4.13;;;1.50;;
74650;SDS011;63169;46.042;14.592;2023-05-16T12:40:56;4.18;;;1.20;;
74650;SDS011;63169;46.042;14.592;2023-05-16T12:43:22;3.58;;;1.98;;
74650;SDS011;63169;46.042;14.592;2023-05-16T12:45:51;3.47;;;1.58;;
74650;SDS011;63169;46.042;14.592;2023-05-16T12:48:18;4.07;;;1.35;;
74650;SDS011;63169;46.042;14.592;2023-05-16T12:50:44;2.60;;;1.23;;
74650;SDS011;63169;46.042;14.592;2023-05-16T12:53:13;3.92;;;2.00;;
74650;SDS011;63169;46.042;14.592;2023-05-16T12:55:40;3.60;;;1.50;;
74650;SDS011;63169;46.042;14.592;2023-05-16T12:58:05;3.20;;;2.00;;
74650;SDS011;63169;46.042;14.592;2023-05-16T13:00:31;2.95;;;1.90;;
74650;SDS011;63169;46.042;14.592;2023-05-16T13:02:57;3.35;;;1.80;;
74650;SDS011;63169;46.042;14.592;2023-05-16T13:05:22;6.60;;;4.40;;
74650;SDS011;63169;46.042;14.592;2023-05-16T13:07:48;2.53;;;0.85;;
74650;SDS011;63169;46.042;14.592;2023-05-16T13:10:15;4.57;;;3.15;;
74650;SDS011;63169;46.042;14.592;2023-05-16T13:12:41;3.03;;;1.75;;
74650;SDS011;63169;46.042;14.592;2023-05-16T13:15:07;3.33;;;1.13;;
74650;SDS011;63169;46.042;14.592;2023-05-16T13:17:33;2.67;;;1.27;;
74650;SDS011;63169;46.042;14.592;2023-05-16T13:19:59;3.80;;;1.52;;
74650;SDS011;63169;46.042;14.592;2023-05-16T13:22:25;3.03;;;1.33;;
74650;SDS011;63169;46.042;14.592;2023-05-16T13:24:51;2.17;;;1.15;;
74650;SDS011;63169;46.042;14.592;2023-05-16T13:27:16;2.28;;;1.15;;
74650;SDS011;63169;46.042;14.592;2023-05-16T13:29:42;2.45;;;0.88;;
74650;SDS011;63169;46.042;14.592;2023-05-16T13:32:07;1.92;;;0.52;;
74650;SDS011;63169;46.042;14.592;2023-05-16T13:34:33;1.70;;;0.75;;
74650;SDS011;63169;46.042;14.592;2023-05-16T13:36:59;1.98;;;0.60;;
74650;SDS011;63169;46.042;14.592;2023-05-16T13:39:24;2.65;;;1.00;;
74650;SDS011;63169;46.042;14.592;2023-05-16T13:41:50;2.20;;;1.17;;
74650;SDS011;63169;46.042;14.592;2023-05-16T13:44:15;2.25;;;0.88;;
74650;SDS011;63169;46.042;14.592;2023-05-16T13:46:41;1.98;;;0.85;;
74650;SDS011;63169;46.042;14.592;2023-05-16T13:49:07;3.63;;;0.73;;
74650;SDS011;63169;46.042;14.592;2023-05-16T13:51:32;3.70;;;1.67;;
74650;SDS011;63169;46.042;14.592;2023-05-16T13:53:57;3.85;;;2.03;;
74650;SDS011;63169;46.042;14.592;2023-05-16T13:56:23;3.03;;;1.63;;
74650;SDS011;63169;46.042;14.592;2023-05-16T13:58:48;4.38;;;2.63;;
74650;SDS011;63169;46.042;14.592;2023-05-16T14:01:14;3.50;;;1.35;;
74650;SDS011;63169;46.042;14.592;2023-05-16T14:03:39;2.67;;;0.70;;
74650;SDS011;63169;46.042;14.592;2023-05-16T14:06:05;3.97;;;2.08;;
74650;SDS011;63169;46.042;14.592;2023-05-16T14:08:31;3.08;;;1.33;;
74650;SDS011;63169;46.042;14.592;2023-05-16T14:10:56;2.85;;;0.93;;
74650;SDS011;63169;46.042;14.592;2023-05-16T14:13:21;4.55;;;4.22;;
74650;SDS011;63169;46.042;14.592;2023-05-16T14:15:47;2.97;;;1.08;;
74650;SDS011;63169;46.042;14.592;2023-05-16T14:18:12;2.90;;;1.27;;
74650;SDS011;63169;46.042;14.592;2023-05-16T14:20:38;2.65;;;1.73;;
74650;SDS011;63169;46.042;14.592;2023-05-16T14:23:04;3.25;;;1.50;;
74650;SDS011;63169;46.042;14.592;2023-05-16T14:25:29;4.75;;;2.17;;
74650;SDS011;63169;46.042;14.592;2023-05-16T14:27:54;4.60;;;4.00;;
74650;SDS011;63169;46.042;14.592;2023-05-16T14:30:20;4.75;;;1.73;;
74650;SDS011;63169;46.042;14.592;2023-05-16T14:32:46;4.15;;;2.25;;
74650;SDS011;63169;46.042;14.592;2023-05-16T14:35:11;4.18;;;1.85;;
74650;SDS011;63169;46.042;14.592;2023-05-16T14:37:36;4.32;;;2.35;;
74650;SDS011;63169;46.042;14.592;2023-05-16T14:40:02;7.20;;;2.88;;
74650;SDS011;63169;46.042;14.592;2023-05-16T14:42:29;10.18;;;3.80;;
74650;SDS011;63169;46.042;14.592;2023-05-16T14:44:55;7.05;;;2.90;;
74650;SDS011;63169;46.042;14.592;2023-05-16T14:47:20;7.32;;;2.85;;
74650;SDS011;63169;46.042;14.592;2023-05-16T14:49:46;3.78;;;1.92;;
74650;SDS011;63169;46.042;14.592;2023-05-16T14:52:11;5.93;;;2.38;;
74650;SDS011;63169;46.042;14.592;2023-05-16T14:54:37;4.88;;;1.98;;
74650;SDS011;63169;46.042;14.592;2023-05-16T14:57:02;4.10;;;1.58;;
74650;SDS011;63169;46.042;14.592;2023-05-16T14:59:28;3.35;;;1.65;;